Strona główna
METAR-TAF:

METAR-TAF

Lotnisko :

Port lotniczy Pittsburgh

Pittsburgh, Pensylwania, Stany Zjednoczone

Szerokość geograficzna: 40-30-14N, Długość geograficzna: 080-15-59W, wysokość: 366 m

Aktualna obserwacja pogody

Raport powstał 27 minut temu, godzina 18:51 UTC
Wiatr 3 kt od wschód
Temperatura -1°C
Wilgotność 54%
Ciśnienie 1024 hPa
Widzialność: 16.1 km
Mało chmury na wysokości 16000 ft
Zachmurzenie całkowite na wysokości 25000 ft

METAR: KPIT 091851Z 08003KT 10SM FEW160 OVC250 M01/M09 A3024 RMK AO2 SLP263 T10061089

czas: 14:18 (19:18 UTC)

Prognoza

Raport powstał 1 godzina i 58 minut temu, godzina 17:20 UTC
Prognoza ważna od 09 godzina 18 UTC do 10 godzina 24 UTC
Wiatr 5 kt od wschód
Widzialność: 10 km
Zachmurzenie całkowite na wysokości 25000 ft
Od 10 godzina 0700 UTC
Wiatr 4 kt od północno-północny zachód
Widzialność: 10 km
Rozproszone chmury na wysokości 1000 ft

TAF: KPIT 091720Z 0918/1024 08005KT P6SM OVC250 FM100700 34004KT P6SM SCT010

Obserwacja i prognoza pogody dla ponad 4000 lotnisk (raport METAR i TAF).

Dostępne stacje oznaczono żółtymi i czerwonymi punktami na mapie.

Najedź kursorem aby zobaczyć nazwę stacji.

Kliknij aby zobaczyć obserwacje i prognozy pogody.

Aby zmienić mapę: kliknij na zielony przycisk z czarnym krzyżykiem, aby powiększyć; na zielony przycisk z myślnikiem, aby pomniejszyć; na zielone strzałki, aby przejść do map sąsiednich.


METAR-TAF: